Time;durP1;ratioP1;P1;durP2;ratioP2;P2;SDS_P1;SDS_P2;PMS_P1;PMS_P2;Temp;Humidity;BMP_temperature;BMP_pressure;BME280_temperature;BME280_humidity;BME280_pressure;Samples;Min_cycle;Max_cycle;Signal;HPM_P1;HPM_P2
2022/10/19 00:04:33;;;;;;;;;;;;;;;;;;10499910;28;19924;-60
2022/10/19 00:09:35;;;;;;;;;;;;;;;;;;10498371;28;20379;-60
2022/10/19 00:14:37;;;;;;;;;;;;;;;;;;10499069;28;19925;-60
2022/10/19 00:19:39;;;;;;;;;;;;;;;;;;10497906;28;19925;-60
2022/10/19 00:24:41;;;;;;;;;;;;;;;;;;10497269;28;20421;-60
2022/10/19 00:29:43;;;;;;;;;;;;;;;;;;10498751;28;19924;-60
2022/10/19 00:34:45;;;;;;;;;;;;;;;;;;10498012;28;20387;-60
2022/10/19 00:39:47;;;;;;;;;;;;;;;;;;10497336;28;19925;-60
2022/10/19 00:44:49;;;;;;;;;;;;;;;;;;10496776;28;20276;-60
2022/10/19 00:49:51;;;;;;;;;;;;;;;;;;10497027;28;19925;-60
2022/10/19 00:54:53;;;;;;;;;;;;;;;;;;10498194;28;19924;-60
2022/10/19 00:59:55;;;;;;;;;;;;;;;;;;10497982;28;19928;-60
2022/10/19 01:04:58;;;;;;;;;;;;;;;;;;10495985;28;19924;-60
2022/10/19 01:10:00;;;;;;;;;;;;;;;;;;10497888;28;19978;-60
2022/10/19 01:15:02;;;;;;;;;;;;;;;;;;10503082;28;19924;-60
2022/10/19 01:20:04;;;;;;;;;;;;;;;;;;10555785;22;19974;-67
2022/10/19 01:25:06;;;;;;;;;;;;;;;;;;10546929;28;19946;-67
2022/10/19 01:30:08;;;;;;;;;;;;;;;;;;10547202;28;19924;-68
2022/10/19 01:35:10;;;;;;;;;;;;;;;;;;10546142;28;19924;-67
2022/10/19 01:40:12;;;;;;;;;;;;;;;;;;10545217;28;19925;-67
2022/10/19 01:45:14;;;;;;;;;;;;;;;;;;10546830;28;19982;-67
2022/10/19 01:50:16;;;;;;;;;;;;;;;;;;10545393;28;19935;-67
2022/10/19 01:55:18;;;;;;;;;;;;;;;;;;10545587;28;20398;-68
2022/10/19 02:00:20;;;;;;;;;;;;;;;;;;10544329;28;19924;-67
2022/10/19 02:05:22;;;;;;;;;;;;;;;;;;10545829;28;19974;-67
2022/10/19 02:10:24;;;;;;;;;;;;;;;;;;10545537;28;19928;-67
2022/10/19 02:15:26;;;;;;;;;;;;;;;;;;10544646;28;19970;-67
2022/10/19 02:20:28;;;;;;;;;;;;;;;;;;10542437;28;19977;-67
2022/10/19 02:25:30;;;;;;;;;;;;;;;;;;10543835;28;19970;-67
2022/10/19 02:30:32;;;;;;;;;;;;;;;;;;10544803;28;19974;-67
2022/10/19 02:35:34;;;;;;;;;;;;;;;;;;10541338;28;19973;-67
2022/10/19 02:40:37;;;;;;;;;;;;;;;;;;10542805;28;19932;-67
2022/10/19 02:45:39;;;;;;;;;;;;;;;;;;10542146;28;19977;-67
2022/10/19 02:50:41;;;;;;;;;;;;;;;;;;10544011;28;19973;-67
2022/10/19 02:55:43;;;;;;;;;;;;;;;;;;10543793;28;19928;-66
2022/10/19 03:00:45;;;;;;;;;;;;;;;;;;10541063;28;20386;-66
2022/10/19 03:05:47;;;;;;;;;;;;;;;;;;10543366;28;19946;-66
2022/10/19 03:10:49;;;;;;;;;;;;;;;;;;10541955;28;19924;-66
2022/10/19 03:15:51;;;;;;;;;;;;;;;;;;10539677;28;19936;-66
2022/10/19 03:20:53;;;;;;;;;;;;;;;;;;10542137;28;19925;-66
2022/10/19 03:25:57;;;;;;;;;;;;;;;;;;10541993;28;19928;-66
2022/10/19 03:30:59;;;;;;;;;;;;;;;;;;10539510;28;19924;-66
2022/10/19 03:36:01;;;;;;;;;;;;;;;;;;10535376;28;20309;-66
2022/10/19 03:41:03;;;;;;;;;;;;;;;;;;10541979;28;19969;-66
2022/10/19 03:46:05;;;;;;;;;;;;;;;;;;10539995;28;19928;-66
2022/10/19 03:51:07;;;;;;;;;;;;;;;;;;10541781;28;19974;-65
2022/10/19 03:56:09;;;;;;;;;;;;;;;;;;10539612;28;19978;-65
2022/10/19 04:01:11;;;;;;;;;;;;;;;;;;10540629;28;19924;-65
2022/10/19 04:06:13;;;;;;;;;;;;;;;;;;10541185;28;19924;-65
2022/10/19 04:11:17;;;;;;;;;;;;;;;;;;10539273;28;20378;-65
2022/10/19 04:16:20;;;;;;;;;;;;;;;;;;10538121;28;19973;-66
2022/10/19 04:21:22;;;;;;;;;;;;;;;;;;10540728;28;19924;-66
2022/10/19 04:26:24;;;;;;;;;;;;;;;;;;10536981;28;19924;-65
2022/10/19 04:31:26;;;;;;;;;;;;;;;;;;10540449;28;19928;-66
2022/10/19 04:36:28;;;;;;;;;;;;;;;;;;10535989;28;20030;-65
2022/10/19 04:41:30;;;;;;;;;;;;;;;;;;10538065;28;19950;-66
2022/10/19 04:46:32;;;;;;;;;;;;;;;;;;10541095;28;19954;-66
2022/10/19 04:51:34;;;;;;;;;;;;;;;;;;10546504;28;19973;-66
2022/10/19 04:56:36;;;;;;;;;;;;;;;;;;10548468;28;19924;-66
2022/10/19 05:01:40;;;;;;;;;;;;;;;;;;10548282;28;19924;-66
2022/10/19 05:06:48;;;;;;;;;;;;;;;;;;10541813;28;19924;-66
2022/10/19 05:11:50;;;;;;;;;;;;;;;;;;10545183;28;20371;-66
2022/10/19 05:16:52;;;;;;;;;;;;;;;;;;10546960;28;19924;-66
2022/10/19 05:21:54;;;;;;;;;;;;;;;;;;10546863;28;20378;-66
2022/10/19 05:26:56;;;;;;;;;;;;;;;;;;10544121;28;19973;-66
2022/10/19 05:31:58;;;;;;;;;;;;;;;;;;10543751;28;20371;-66
2022/10/19 05:37:00;;;;;;;;;;;;;;;;;;10546316;28;19924;-66
2022/10/19 05:42:02;;;;;;;;;;;;;;;;;;10539687;28;19970;-66
2022/10/19 05:47:04;;;;;;;;;;;;;;;;;;10545858;28;20420;-65
2022/10/19 05:52:06;;;;;;;;;;;;;;;;;;10539896;28;19928;-65
2022/10/19 05:57:08;;;;;;;;;;;;;;;;;;10545910;28;19924;-65
2022/10/19 06:02:10;;;;;;;;;;;;;;;;;;10545309;28;20329;-65
2022/10/19 06:07:12;;;;;;;;;;;;;;;;;;10506648;28;19932;-65
2022/10/19 06:12:14;;;;;;;;;;;;;;;;;;10529727;28;19971;-65
2022/10/19 06:17:17;;;;;;;;;;;;;;;;;;10533332;28;20329;-65
2022/10/19 06:22:21;;;;;;;;;;;;;;;;;;10544329;28;20405;-65
2022/10/19 06:27:23;;;;;;;;;;;;;;;;;;10544718;28;19924;-65
2022/10/19 06:32:27;;;;;;;;;;;;;;;;;;10544745;28;20019;-66
2022/10/19 06:37:29;;;;;;;;;;;;;;;;;;10544349;28;19924;-65
2022/10/19 06:42:31;;;;;;;;;;;;;;;;;;10542559;28;19950;-66
2022/10/19 06:47:33;;;;;;;;;;;;;;;;;;10539116;28;19924;-66
2022/10/19 06:52:36;;;;;;;;;;;;;;;;;;10542398;28;19935;-66
2022/10/19 06:57:38;;;;;;;;;;;;;;;;;;10539351;28;19949;-66
2022/10/19 07:02:40;;;;;;;;;;;;;;;;;;10527950;28;20389;-66
2022/10/19 07:07:42;;;;;;;;;;;;;;;;;;10503092;28;19935;-66
2022/10/19 07:12:44;;;;;;;;;;;;;;;;;;10518861;28;20278;-66
2022/10/19 07:17:46;;;;;;;;;;;;;;;;;;10509043;28;19928;-65
2022/10/19 07:22:48;;;;;;;;;;;;;;;;;;10533071;28;19982;-66
2022/10/19 07:27:50;;;;;;;;;;;;;;;;;;10500359;28;19928;-66
2022/10/19 07:32:52;;;;;;;;;;;;;;;;;;10528907;28;19967;-66
2022/10/19 07:37:54;;;;;;;;;;;;;;;;;;10535286;28;19924;-66
2022/10/19 07:42:56;;;;;;;;;;;;;;;;;;10537296;28;20011;-66
2022/10/19 07:47:58;;;;;;;;;;;;;;;;;;10535715;28;19970;-66
2022/10/19 07:53:04;;;;;;;;;;;;;;;;;;10535529;28;19977;-66
2022/10/19 07:58:06;;;;;;;;;;;;;;;;;;10535258;28;19927;-66
2022/10/19 08:03:08;;;;;;;;;;;;;;;;;;10526307;28;19978;-66
2022/10/19 08:08:30;;;;;;;;;;;;;;;;;;10521189;28;20359;-66
2022/10/19 08:13:32;;;;;;;;;;;;;;;;;;10530808;28;19924;-67
2022/10/19 08:18:34;;;;;;;;;;;;;;;;;;10552141;28;20305;-66
2022/10/19 08:23:36;;;;;;;;;;;;;;;;;;10557335;28;19985;-67
2022/10/19 08:28:39;;;;;;;;;;;;;;;;;;10539933;28;19950;-67
2022/10/19 08:33:41;;;;;;;;;;;;;;;;;;10537308;28;20401;-67
2022/10/19 08:38:43;;;;;;;;;;;;;;;;;;10536238;28;19932;-67
2022/10/19 08:43:45;;;;;;;;;;;;;;;;;;10539321;28;19924;-66
2022/10/19 08:48:48;;;;;;;;;;;;;;;;;;10536844;28;19978;-67
2022/10/19 08:53:50;;;;;;;;;;;;;;;;;;10539574;28;19924;-67
2022/10/19 08:58:52;;;;;;;;;;;;;;;;;;10540043;28;19970;-67
2022/10/19 09:03:54;;;;;;;;;;;;;;;;;;10540001;28;19946;-68
2022/10/19 09:08:57;;;;;;;;;;;;;;;;;;10539849;28;19924;-68
2022/10/19 09:13:59;;;;;;;;;;;;;;;;;;10539803;28;19924;-68
2022/10/19 09:19:06;;;;;;;;;;;;;;;;;;10539041;28;19978;-69
2022/10/19 09:24:08;;;;;;;;;;;;;;;;;;10538921;28;19941;-69
2022/10/19 09:29:10;;;;;;;;;;;;;;;;;;10538850;28;19950;-69
2022/10/19 09:34:12;;;;;;;;;;;;;;;;;;10543166;28;19924;-69
2022/10/19 09:39:14;;;;;;;;;;;;;;;;;;10546225;28;19950;-70
2022/10/19 09:44:16;;;;;;;;;;;;;;;;;;10546089;28;19928;-70
2022/10/19 09:49:18;;;;;;;;;;;;;;;;;;10546549;28;19924;-69
2022/10/19 09:54:20;;;;;;;;;;;;;;;;;;10545740;28;19924;-69
2022/10/19 09:59:22;;;;;;;;;;;;;;;;;;10545456;28;19989;-70
2022/10/19 10:04:24;;;;;;;;;;;;;;;;;;10545326;28;20402;-70
2022/10/19 10:09:26;;;;;;;;;;;;;;;;;;10545793;28;19948;-69
2022/10/19 10:14:28;;;;;;;;;;;;;;;;;;10524676;28;20342;-69
2022/10/19 10:19:30;;;;;;;;;;;;;;;;;;10529538;28;20010;-70
2022/10/19 10:24:32;;;;;;;;;;;;;;;;;;10524651;28;19981;-69
2022/10/19 10:29:35;;;;;;;;;;;;;;;;;;10544905;28;19924;-69
2022/10/19 10:34:37;;;;;;;;;;;;;;;;;;10544727;28;19928;-69
2022/10/19 10:39:50;;;;;;;;;;;;;;;;;;10526634;28;20466;-69
2022/10/19 10:44:52;;;;;;;;;;;;;;;;;;10540682;28;19924;-70
2022/10/19 10:49:54;;;;;;;;;;;;;;;;;;10543115;28;19924;-69
2022/10/19 10:54:57;;;;;;;;;;;;;;;;;;10544098;28;19981;-70
2022/10/19 10:59:59;;;;;;;;;;;;;;;;;;10541588;28;19924;-69
2022/10/19 11:05:01;;;;;;;;;;;;;;;;;;10541385;28;19978;-70
2022/10/19 11:10:05;;;;;;;;;;;;;;;;;;10539617;28;20383;-69
2022/10/19 11:15:07;;;;;;;;;;;;;;;;;;10542329;28;20317;-69
2022/10/19 11:20:09;;;;;;;;;;;;;;;;;;10542042;28;19924;-69
2022/10/19 11:25:11;;;;;;;;;;;;;;;;;;10542101;28;20367;-69
2022/10/19 11:30:13;;;;;;;;;;;;;;;;;;10541894;28;19924;-70
2022/10/19 11:35:15;;;;;;;;;;;;;;;;;;10541714;28;19972;-70
2022/10/19 11:40:17;;;;;;;;;;;;;;;;;;10542089;28;19924;-70
2022/10/19 11:45:23;;;;;;;;;;;;;;;;;;10541979;28;19924;-70
2022/10/19 11:50:25;;;;;;;;;;;;;;;;;;10542335;28;19977;-70
2022/10/19 11:55:30;;;;;;;;;;;;;;;;;;10540742;28;20287;-70
2022/10/19 12:00:32;;;;;;;;;;;;;;;;;;10541079;28;19924;-70
2022/10/19 12:05:40;;;;;;;;;;;;;;;;;;10541370;28;19924;-70
2022/10/19 12:10:42;;;;;;;;;;;;;;;;;;10540484;28;19924;-70
2022/10/19 12:15:44;;;;;;;;;;;;;;;;;;10540365;28;19977;-70
2022/10/19 12:20:46;;;;;;;;;;;;;;;;;;10539851;28;20379;-70
2022/10/19 12:25:48;;;;;;;;;;;;;;;;;;10540086;28;19924;-70
2022/10/19 12:30:50;;;;;;;;;;;;;;;;;;10540867;28;19927;-70
2022/10/19 12:35:53;;;;;;;;;;;;;;;;;;10540515;28;19970;-63
2022/10/19 12:40:55;;;;;;;;;;;;;;;;;;10539694;28;19924;-64
2022/10/19 12:45:57;;;;;;;;;;;;;;;;;;10539722;28;20358;-64
2022/10/19 12:50:59;;;;;;;;;;;;;;;;;;10540245;28;19924;-64
2022/10/19 12:56:01;;;;;;;;;;;;;;;;;;10539571;28;20256;-64
2022/10/19 13:01:03;;;;;;;;;;;;;;;;;;10539055;28;20378;-64
2022/10/19 13:06:05;;;;;;;;;;;;;;;;;;10539302;28;20338;-65
2022/10/19 13:11:08;;;;;;;;;;;;;;;;;;10547158;28;19973;-66
2022/10/19 13:16:10;;;;;;;;;;;;;;;;;;10547866;28;19977;-66
2022/10/19 13:21:12;;;;;;;;;;;;;;;;;;10547702;28;19924;-66
2022/10/19 13:26:14;;;;;;;;;;;;;;;;;;10546296;28;19924;-66
2022/10/19 13:31:16;;;;;;;;;;;;;;;;;;10555001;22;19928;-63
2022/10/19 13:36:18;;;;;;;;;;;;;;;;;;10546775;28;20390;-62
2022/10/19 13:41:20;;;;;;;;;;;;;;;;;;10546418;28;19924;-63
2022/10/19 13:46:25;;;;;;;;;;;;;;;;;;10546924;28;19927;-62
2022/10/19 13:51:27;;;;;;;;;;;;;;;;;;10546684;28;19924;-62
2022/10/19 13:56:29;;;;;;;;;;;;;;;;;;10545749;28;19947;-67
2022/10/19 14:01:31;;;;;;;;;;;;;;;;;;10546255;28;19932;-62
2022/10/19 14:06:33;;;;;;;;;;;;;;;;;;10546126;28;19924;-62
2022/10/19 14:11:35;;;;;;;;;;;;;;;;;;10544179;28;20420;-62
2022/10/19 14:16:37;;;;;;;;;;;;;;;;;;10545764;28;19924;-62
2022/10/19 14:21:40;;;;;;;;;;;;;;;;;;10545366;28;19977;-62
2022/10/19 14:26:42;;;;;;;;;;;;;;;;;;10545371;28;19931;-62
2022/10/19 14:31:44;;;;;;;;;;;;;;;;;;10544855;28;19924;-62
2022/10/19 14:36:46;;;;;;;;;;;;;;;;;;10544320;28;20272;-63
2022/10/19 14:41:48;;;;;;;;;;;;;;;;;;10544042;28;19985;-62
2022/10/19 14:46:50;;;;;;;;;;;;;;;;;;10543772;28;20367;-63
2022/10/19 15:09:10;;;;;;;;;;;;;;;;;;10539274;28;20289;-63
2022/10/19 15:14:23;;;;;;;;;;;;;;;;;;10541550;28;19924;-63
2022/10/19 15:19:25;;;;;;;;;;;;;;;;;;10540316;28;19993;-62
2022/10/19 15:24:27;;;;;;;;;;;;;;;;;;10542296;28;19924;-62
2022/10/19 15:29:29;;;;;;;;;;;;;;;;;;10542559;28;19928;-62
2022/10/19 15:34:31;;;;;;;;;;;;;;;;;;10540812;28;19924;-61
2022/10/19 15:39:33;;;;;;;;;;;;;;;;;;10546957;28;19923;-61
2022/10/19 15:44:43;;;;;;;;;;;;;;;;;;10546689;28;19924;-61
2022/10/19 15:49:45;;;;;;;;;;;;;;;;;;10541454;28;19949;-61
2022/10/19 15:54:47;;;;;;;;;;;;;;;;;;10541308;28;19924;-61
2022/10/19 15:59:49;;;;;;;;;;;;;;;;;;10538806;28;19924;-61
2022/10/19 16:04:51;;;;;;;;;;;;;;;;;;10539326;28;19924;-61
2022/10/19 16:09:53;;;;;;;;;;;;;;;;;;10539968;28;19924;-61
2022/10/19 16:14:55;;;;;;;;;;;;;;;;;;10541262;28;20045;-61
2022/10/19 16:19:58;;;;;;;;;;;;;;;;;;10546026;28;19928;-61
2022/10/19 16:25:00;;;;;;;;;;;;;;;;;;10540880;28;19924;-61
2022/10/19 16:30:02;;;;;;;;;;;;;;;;;;10540939;28;19928;-61
2022/10/19 16:35:04;;;;;;;;;;;;;;;;;;10538138;28;19974;-61
2022/10/19 16:40:06;;;;;;;;;;;;;;;;;;10540638;28;19924;-61
2022/10/19 16:45:08;;;;;;;;;;;;;;;;;;10544709;28;20387;-60
2022/10/19 16:50:10;;;;;;;;;;;;;;;;;;10547713;28;20017;-60
2022/10/19 16:55:12;;;;;;;;;;;;;;;;;;10548664;28;19924;-61
2022/10/19 17:00:14;;;;;;;;;;;;;;;;;;10548744;28;19924;-60
2022/10/19 17:05:16;;;;;;;;;;;;;;;;;;10547693;28;19924;-60
2022/10/19 17:10:18;;;;;;;;;;;;;;;;;;10548400;28;19928;-61
2022/10/19 17:15:20;;;;;;;;;;;;;;;;;;10547546;28;20267;-61
2022/10/19 17:20:42;;;;;;;;;;;;;;;;;;10545657;28;20344;-60
2022/10/19 17:25:44;;;;;;;;;;;;;;;;;;10547093;28;20313;-60
2022/10/19 17:30:47;;;;;;;;;;;;;;;;;;10546468;28;19924;-61
2022/10/19 17:35:50;;;;;;;;;;;;;;;;;;10553135;28;20390;-61
2022/10/19 17:40:52;;;;;;;;;;;;;;;;;;10544459;28;19924;-60
2022/10/19 17:45:54;;;;;;;;;;;;;;;;;;10505288;28;19925;-60
2022/10/19 17:50:56;;;;;;;;;;;;;;;;;;10536159;28;19924;-60
2022/10/19 17:55:58;;;;;;;;;;;;;;;;;;10550348;28;19928;-60
2022/10/19 18:01:00;;;;;;;;;;;;;;;;;;10578851;28;19932;-60
2022/10/19 18:06:02;;;;;;;;;;;;;;;;;;10569573;28;20431;-60
2022/10/19 18:11:06;;;;;;;;;;;;;;;;;;10588187;28;19969;-60
2022/10/19 18:16:08;;;;;;;;;;;;;;;;;;10579916;28;19931;-60
2022/10/19 18:21:10;;;;;;;;;;;;;;;;;;10543682;28;20337;-60
2022/10/19 18:26:13;;;;;;;;;;;;;;;;;;10544768;28;20436;-60
2022/10/19 18:31:15;;;;;;;;;;;;;;;;;;10544697;28;19928;-60
2022/10/19 18:36:17;;;;;;;;;;;;;;;;;;10543721;28;19924;-60
2022/10/19 18:41:19;;;;;;;;;;;;;;;;;;10569107;28;20382;-60
2022/10/19 18:46:21;;;;;;;;;;;;;;;;;;10551215;28;19924;-60
2022/10/19 18:51:24;;;;;;;;;;;;;;;;;;10542455;28;20149;-60
2022/10/19 18:56:26;;;;;;;;;;;;;;;;;;10550915;28;19947;-60
2022/10/19 19:01:28;;;;;;;;;;;;;;;;;;10552145;28;19924;-60
2022/10/19 19:06:32;;;;;;;;;;;;;;;;;;10541196;28;19924;-60
2022/10/19 19:11:34;;;;;;;;;;;;;;;;;;10542633;28;19946;-60
2022/10/19 19:16:38;;;;;;;;;;;;;;;;;;10556999;28;20076;-60
2022/10/19 19:21:42;;;;;;;;;;;;;;;;;;10542891;28;19924;-60
2022/10/19 19:26:45;;;;;;;;;;;;;;;;;;10541906;28;20378;-60
2022/10/19 19:31:47;;;;;;;;;;;;;;;;;;10541818;28;19931;-60
2022/10/19 19:36:49;;;;;;;;;;;;;;;;;;10541916;28;19931;-60
2022/10/19 19:41:51;;;;;;;;;;;;;;;;;;10541225;28;19924;-60
2022/10/19 19:46:53;;;;;;;;;;;;;;;;;;10550203;28;19977;-60
2022/10/19 19:51:55;;;;;;;;;;;;;;;;;;10543809;28;19924;-60
2022/10/19 19:56:57;;;;;;;;;;;;;;;;;;10538977;28;20341;-60
2022/10/19 20:02:00;;;;;;;;;;;;;;;;;;10541395;28;19924;-60
2022/10/19 20:07:02;;;;;;;;;;;;;;;;;;10541573;28;19924;-60
2022/10/19 20:12:04;;;;;;;;;;;;;;;;;;10539588;28;19992;-60
2022/10/19 20:17:06;;;;;;;;;;;;;;;;;;10539107;28;19923;-60
2022/10/19 20:22:09;;;;;;;;;;;;;;;;;;10538434;28;19928;-60
2022/10/19 20:27:11;;;;;;;;;;;;;;;;;;10556977;28;19923;-60
2022/10/19 20:32:13;;;;;;;;;;;;;;;;;;10539323;28;19924;-60
2022/10/19 20:37:15;;;;;;;;;;;;;;;;;;10537934;28;19931;-60
2022/10/19 20:42:17;;;;;;;;;;;;;;;;;;10539256;28;20426;-60
2022/10/19 20:47:19;;;;;;;;;;;;;;;;;;10539409;28;19928;-60
2022/10/19 20:52:21;;;;;;;;;;;;;;;;;;10538729;28;20268;-60
2022/10/19 20:57:23;;;;;;;;;;;;;;;;;;10537905;28;19924;-60
2022/10/19 21:02:25;;;;;;;;;;;;;;;;;;10541961;28;19928;-60
2022/10/19 21:07:27;;;;;;;;;;;;;;;;;;10539231;28;19924;-60
2022/10/19 21:12:29;;;;;;;;;;;;;;;;;;10533766;28;19927;-60
2022/10/19 21:17:31;;;;;;;;;;;;;;;;;;10537715;28;19978;-60
2022/10/19 21:22:38;;;;;;;;;;;;;;;;;;10534178;28;19959;-60
2022/10/19 21:27:41;;;;;;;;;;;;;;;;;;10537689;28;19931;-60
2022/10/19 21:32:43;;;;;;;;;;;;;;;;;;10545869;28;20371;-60
2022/10/19 21:37:45;;;;;;;;;;;;;;;;;;10546528;28;19930;-60
2022/10/19 21:42:47;;;;;;;;;;;;;;;;;;10545815;28;19924;-60
2022/10/19 21:47:49;;;;;;;;;;;;;;;;;;10546979;28;19928;-60
2022/10/19 21:52:51;;;;;;;;;;;;;;;;;;10545559;28;20363;-60
2022/10/19 21:57:53;;;;;;;;;;;;;;;;;;10545687;28;19972;-60
2022/10/19 22:02:55;;;;;;;;;;;;;;;;;;10545712;28;19928;-60
2022/10/19 22:07:57;;;;;;;;;;;;;;;;;;10545395;28;19978;-60
2022/10/19 22:12:59;;;;;;;;;;;;;;;;;;10545331;28;20444;-60
2022/10/19 22:18:01;;;;;;;;;;;;;;;;;;10544870;28;19924;-60
2022/10/19 22:23:03;;;;;;;;;;;;;;;;;;10545498;28;19928;-60
2022/10/19 22:28:05;;;;;;;;;;;;;;;;;;10545397;28;19967;-60
2022/10/19 22:33:07;;;;;;;;;;;;;;;;;;10542666;28;19977;-60
2022/10/19 22:38:09;;;;;;;;;;;;;;;;;;10543158;28;19974;-60
2022/10/19 22:43:14;;;;;;;;;;;;;;;;;;10544043;28;19983;-60
2022/10/19 22:48:16;;;;;;;;;;;;;;;;;;10544581;28;19931;-60
2022/10/19 22:53:18;;;;;;;;;;;;;;;;;;10542565;28;19924;-60
2022/10/19 22:58:21;;;;;;;;;;;;;;;;;;10543420;28;19969;-60
2022/10/19 23:03:23;;;;;;;;;;;;;;;;;;10551621;28;20374;-60
2022/10/19 23:08:25;;;;;;;;;;;;;;;;;;10585954;28;19924;-60
2022/10/19 23:13:27;;;;;;;;;;;;;;;;;;10585773;28;19931;-60
2022/10/19 23:18:29;;;;;;;;;;;;;;;;;;10556834;28;19943;-60
2022/10/19 23:23:31;;;;;;;;;;;;;;;;;;10542516;28;20264;-60
2022/10/19 23:28:33;;;;;;;;;;;;;;;;;;10542925;28;19981;-60
2022/10/19 23:33:35;;;;;;;;;;;;;;;;;;10541181;28;19928;-60
2022/10/19 23:38:37;;;;;;;;;;;;;;;;;;10540632;28;20037;-60
2022/10/19 23:43:39;;;;;;;;;;;;;;;;;;10541930;28;20296;-60
2022/10/19 23:48:41;;;;;;;;;;;;;;;;;;10541594;28;20003;-60
2022/10/19 23:53:43;;;;;;;;;;;;;;;;;;10540684;28;19924;-60
2022/10/19 23:58:45;;;;;;;;;;;;;;;;;;10539665;28;19924;-60
